Time;durP1;ratioP1;P1;durP2;ratioP2;P2;SDS_P1;SDS_P2;PMS_P1;PMS_P2;Temp;Humidity;BMP_temperature;BMP_pressure;BME280_temperature;BME280_humidity;BME280_pressure;Samples;Min_cycle;Max_cycle;Signal;HPM_P1;HPM_P2
2022/05/13 00:01:52;;;;;;;6.43;5.60;;;;;;;17.27;100.00;96666.19;5051649;27;104377;-66
2022/05/13 00:04:19;;;;;;;6.00;5.50;;;;;;;17.26;100.00;96648.44;5074663;27;101909;-66
2022/05/13 00:06:46;;;;;;;7.20;5.53;;;;;;;17.20;100.00;96654.94;5051487;27;105289;-66
2022/05/13 00:09:14;;;;;;;7.53;4.97;;;;;;;17.22;100.00;96634.75;5052633;27;101961;-66
2022/05/13 00:11:48;;;;;;;8.20;5.60;;;;;;;17.26;100.00;96638.50;5069231;27;105274;-66
2022/05/13 00:14:15;;;;;;;5.77;5.20;;;;;;;17.18;100.00;96651.75;5051850;27;105875;-66
2022/05/13 00:16:57;;;;;;;5.17;4.67;;;;;;;17.15;100.00;96650.44;5070988;27;101862;-66
2022/05/13 00:19:24;;;;;;;5.53;5.03;;;;;;;17.19;100.00;96643.41;5052156;27;105168;-66
2022/05/13 00:22:28;;;;;;;5.43;4.90;;;;;;;17.25;100.00;96636.91;5070055;27;103142;-66
2022/05/13 00:24:56;;;;;;;4.97;4.57;;;;;;;17.20;100.00;96647.69;5037193;27;101949;-66
2022/05/13 00:27:24;;;;;;;4.83;4.47;;;;;;;17.15;100.00;96649.63;5031395;28;105269;-66
2022/05/13 00:29:51;;;;;;;5.27;4.77;;;;;;;17.20;100.00;96642.31;5029072;27;102250;-66
2022/05/13 00:32:27;;;;;;;5.20;4.80;;;;;;;17.29;100.00;96635.25;5041400;27;105000;-66
2022/05/13 00:34:54;;;;;;;5.70;5.00;;;;;;;17.34;100.00;96634.38;5033650;27;105767;-66
2022/05/13 00:37:21;;;;;;;6.20;5.10;;;;;;;17.37;100.00;96634.59;5010033;28;101971;-66
2022/05/13 00:39:48;;;;;;;4.97;4.53;;;;;;;17.26;100.00;96635.00;5028102;27;105634;-66
2022/05/13 00:45:51;;;;;;;5.10;4.67;;;;;;;17.15;100.00;96623.56;5048632;27;101882;-66
2022/05/13 00:48:18;;;;;;;5.93;5.03;;;;;;;16.94;100.00;96632.16;5051661;27;105122;-66
2022/05/13 00:50:45;;;;;;;5.07;4.67;;;;;;;17.11;100.00;96624.44;5031166;27;101942;-66
2022/05/13 00:53:12;;;;;;;4.90;4.50;;;;;;;17.04;100.00;96632.00;5048190;27;105218;-66
2022/05/13 00:55:43;;;;;;;5.67;5.17;;;;;;;17.15;100.00;96630.81;5031139;27;105974;-66
2022/05/13 00:58:15;;;;;;;4.90;4.50;;;;;;;17.15;100.00;96630.81;5030131;28;101743;-66
2022/05/13 01:00:59;;;;;;;5.13;4.70;;;;;;;17.07;100.00;96632.25;5044819;27;105119;-66
2022/05/13 01:03:26;;;;;;;5.00;4.60;;;;;;;17.03;100.00;96623.16;5007652;28;103771;-66
2022/05/13 01:05:59;;;;;;;5.70;5.20;;;;;;;17.12;100.00;96626.81;5030674;27;102364;-66
2022/05/13 01:08:27;;;;;;;5.30;4.80;;;;;;;17.05;100.00;96637.09;5048308;27;102878;-66
2022/05/13 01:10:56;;;;;;;5.20;4.80;;;;;;;17.01;100.00;96644.13;5054285;27;105845;-66
2022/05/13 01:13:28;;;;;;;5.43;4.97;;;;;;;16.97;100.00;96645.00;5051889;27;105603;-66
2022/05/13 01:15:58;;;;;;;4.87;4.40;;;;;;;16.93;100.00;96643.94;5033976;27;102607;-66
2022/05/13 01:18:27;;;;;;;5.77;5.07;;;;;;;16.92;100.00;96647.72;5031675;28;101768;-67
2022/05/13 01:21:29;;;;;;;6.03;5.43;;;;;;;16.72;100.00;96637.97;5033216;27;102279;-66
2022/05/13 01:23:57;;;;;;;5.43;4.93;;;;;;;16.81;100.00;96630.09;5012097;27;103819;-67
2022/05/13 01:26:29;;;;;;;6.90;5.83;;;;;;;16.77;100.00;96631.75;5031640;28;101871;-66
2022/05/13 01:28:57;;;;;;;6.10;5.60;;;;;;;16.80;100.00;96623.13;5031175;28;105682;-66
2022/05/13 01:31:39;;;;;;;5.90;5.30;;;;;;;16.82;100.00;96635.19;5031851;28;102551;-66
2022/05/13 01:34:08;;;;;;;6.40;5.80;;;;;;;16.62;100.00;96642.66;5034693;28;101854;-66
2022/05/13 01:36:37;;;;;;;6.13;5.60;;;;;;;16.70;100.00;96636.66;5030335;28;104633;-66
2022/05/13 01:39:05;;;;;;;6.83;6.23;;;;;;;16.80;100.00;96625.81;5032459;27;101975;-66
2022/05/13 01:41:37;;;;;;;6.20;5.60;;;;;;;16.85;100.00;96626.56;5030920;28;105215;-66
2022/05/13 01:44:04;;;;;;;6.73;6.03;;;;;;;16.73;100.00;96638.78;5031779;28;102620;-66
2022/05/13 01:47:04;;;;;;;6.13;5.60;;;;;;;16.79;100.00;96643.03;5031213;28;102210;-66
2022/05/13 01:49:31;;;;;;;6.57;6.00;;;;;;;16.85;100.00;96641.88;5032412;28;102595;-66
2022/05/13 01:52:02;;;;;;;6.07;5.47;;;;;;;16.85;100.00;96647.25;5030100;28;104769;-66
2022/05/13 01:54:31;;;;;;;8.17;5.80;;;;;;;16.84;100.00;96640.28;5032455;28;103638;-66
2022/05/13 01:56:58;;;;;;;7.00;6.00;;;;;;;16.91;100.00;96641.56;5033553;28;105147;-66
2022/05/13 01:59:25;;;;;;;5.93;5.43;;;;;;;16.89;100.00;96637.56;5030960;28;101889;-66
2022/05/13 02:05:15;;;;;;;6.23;5.73;;;;;;;16.87;100.00;96634.34;5029811;28;105874;-66
2022/05/13 02:07:42;;;;;;;7.57;5.87;;;;;;;16.84;100.00;96640.28;5030650;28;101942;-66
2022/05/13 02:10:11;;;;;;;6.87;6.27;;;;;;;16.70;100.00;96645.53;5027355;28;105291;-66
2022/05/13 02:12:38;;;;;;;6.63;5.50;;;;;;;16.66;100.00;96636.41;5023174;28;103867;-66
2022/05/13 02:15:20;;;;;;;7.13;5.80;;;;;;;16.73;100.00;96633.41;5030508;27;101962;-66
2022/05/13 02:17:47;;;;;;;6.60;5.67;;;;;;;16.74;100.00;96638.47;5029983;28;105123;-66
2022/05/13 02:21:06;;;;;;;6.60;5.90;;;;;;;16.68;100.00;96642.28;5033314;28;105042;-66
2022/05/13 02:23:33;;;;;;;6.83;5.10;;;;;;;16.73;100.00;96636.09;5043589;27;102585;-66
2022/05/13 02:26:06;;;;;;;6.10;5.50;;;;;;;16.69;100.00;96648.50;5053581;27;105304;-66
2022/05/13 02:28:34;;;;;;;5.43;4.93;;;;;;;16.77;100.00;96626.38;5072240;27;101947;-66
2022/05/13 02:31:06;;;;;;;6.13;5.50;;;;;;;16.70;100.00;96644.72;5053956;27;105272;-66
2022/05/13 02:33:34;;;;;;;6.67;5.57;;;;;;;16.69;100.00;96640.44;5033137;27;104061;-66
2022/05/13 02:36:02;;;;;;;7.37;5.50;;;;;;;16.75;100.00;96647.34;5044730;27;102187;-66
2022/05/13 02:38:30;;;;;;;6.53;5.80;;;;;;;16.78;100.00;96652.97;5053889;27;105714;-66
2022/05/13 02:41:15;;;;;;;6.20;5.60;;;;;;;16.69;100.00;96659.22;5053084;27;105818;-66
2022/05/13 02:43:46;;;;;;;5.93;5.20;;;;;;;16.71;100.00;96663.22;5057220;27;101812;-66
2022/05/13 02:46:23;;;;;;;6.20;5.40;;;;;;;16.73;100.00;96665.66;5052782;27;107774;-66
2022/05/13 02:48:50;;;;;;;6.10;5.50;;;;;;;16.71;100.00;96670.47;5053716;27;101868;-66
2022/05/13 02:51:19;;;;;;;6.30;5.63;;;;;;;16.69;100.00;96665.41;5053453;27;105152;-66
2022/05/13 02:53:47;;;;;;;6.17;5.57;;;;;;;16.73;100.00;96663.75;5071697;27;102622;-66
2022/05/13 02:56:14;;;;;;;10.43;5.53;;;;;;;16.72;100.00;96658.66;5053306;27;102013;-66
2022/05/13 02:58:43;;;;;;;7.70;5.37;;;;;;;16.72;100.00;96664.84;5053299;27;105051;-66
2022/05/13 03:04:32;;;;;;;5.97;5.40;;;;;;;16.77;100.00;96661.28;5057211;27;101800;-66
2022/05/13 03:06:59;;;;;;;6.50;5.77;;;;;;;16.74;100.00;96662.66;5070836;27;102500;-66
2022/05/13 03:09:27;;;;;;;7.00;5.40;;;;;;;16.79;100.00;96667.19;5053001;27;102017;-66
2022/05/13 03:11:57;;;;;;;6.97;5.53;;;;;;;16.79;100.00;96665.28;5053248;27;104832;-66
2022/05/13 03:14:26;;;;;;;5.97;5.27;;;;;;;16.78;100.00;96668.28;5069819;27;105370;-66
2022/05/13 03:16:53;;;;;;;5.97;5.37;;;;;;;16.76;100.00;96663.19;5052894;27;102117;-66
2022/05/13 03:19:20;;;;;;;6.10;5.50;;;;;;;16.77;100.00;96662.09;5071428;27;103021;-66
2022/05/13 03:22:10;;;;;;;6.17;5.57;;;;;;;16.80;100.00;96660.75;5052418;27;105489;-66
2022/05/13 03:24:37;;;;;;;8.50;5.90;;;;;;;16.70;100.00;96655.44;5052727;27;101867;-66
2022/05/13 03:27:07;;;;;;;8.97;5.80;;;;;;;16.69;100.00;96651.16;5055427;27;105604;-66
2022/05/13 03:29:37;;;;;;;7.20;5.73;;;;;;;16.67;100.00;96646.06;5069764;27;101825;-66
2022/05/13 03:32:06;;;;;;;6.43;5.50;;;;;;;16.72;100.00;96659.47;5071532;27;102885;-66
2022/05/13 03:34:33;;;;;;;6.57;5.87;;;;;;;16.76;100.00;96654.31;5052375;27;105440;-66
2022/05/13 03:37:01;;;;;;;6.20;5.60;;;;;;;16.75;100.00;96653.53;5052423;27;102047;-66
2022/05/13 03:39:28;;;;;;;6.97;4.83;;;;;;;16.69;100.00;96653.84;5052667;27;104837;-66
2022/05/13 03:42:01;;;;;;;7.27;5.27;;;;;;;16.79;100.00;96654.56;5048664;27;105481;-66
2022/05/13 03:44:29;;;;;;;5.47;4.90;;;;;;;16.84;100.00;96657.19;5033276;27;102086;-66
2022/05/13 03:46:58;;;;;;;6.07;5.47;;;;;;;16.84;100.00;96645.66;5071235;27;102410;-66
2022/05/13 03:49:26;;;;;;;5.70;5.20;;;;;;;16.90;100.00;96652.59;5055418;27;105266;-66
2022/05/13 03:51:57;;;;;;;6.60;5.37;;;;;;;16.92;100.00;96647.72;5052529;27;104085;-66
2022/05/13 03:54:24;;;;;;;6.27;5.67;;;;;;;16.91;100.00;96643.44;5069351;27;105665;-66
2022/05/13 03:56:51;;;;;;;6.20;5.67;;;;;;;16.88;100.00;96644.00;5071094;27;102133;-66
2022/05/13 03:59:18;;;;;;;6.50;5.77;;;;;;;16.85;100.00;96641.88;5070537;27;102418;-66
2022/05/13 04:02:17;;;;;;;5.93;5.33;;;;;;;16.81;100.00;96636.28;5061639;27;105708;-66
2022/05/13 04:10:15;;;;;;;7.10;6.00;;;;;;;16.76;100.00;96655.13;5069118;27;105257;-66
2022/05/13 04:18:12;;;;;;;14.50;12.40;;;;;;;16.83;100.00;96644.84;5051945;27;102082;-66
2022/05/13 04:21:04;;;;;;;15.13;13.53;;;;;;;16.65;100.00;96648.25;5051497;27;105315;-66
2022/05/13 04:23:32;;;;;;;14.70;13.20;;;;;;;16.66;100.00;96646.34;5048961;27;102773;-67
2022/05/13 04:25:58;;;;;;;10.17;9.07;;;;;;;16.58;100.00;96646.97;5031170;27;101880;-66
2022/05/13 04:28:25;;;;;;;7.83;6.93;;;;;;;16.52;100.00;96654.25;5065768;27;105100;-66
2022/05/13 04:31:08;;;;;;;7.20;6.50;;;;;;;16.58;100.00;96644.28;5049791;27;102770;-66
2022/05/13 04:33:38;;;;;;;7.57;6.27;;;;;;;16.60;100.00;96642.91;5051157;27;101887;-66
2022/05/13 04:36:07;;;;;;;7.07;6.47;;;;;;;16.68;100.00;96647.66;5056123;27;101692;-66
2022/05/13 04:38:35;;;;;;;6.60;6.07;;;;;;;16.73;100.00;96646.84;5069239;27;101906;-66
2022/05/13 04:43:45;;;;;;;6.93;6.33;;;;;;;16.80;100.00;96644.63;5072128;27;102825;-66
2022/05/13 04:46:15;;;;;;;6.70;6.10;;;;;;;16.81;100.00;96656.97;5074127;27;101800;-66
2022/05/13 04:48:43;;;;;;;7.10;6.50;;;;;;;16.81;100.00;96656.97;5053783;27;101857;-66
2022/05/13 04:51:17;;;;;;;6.77;6.17;;;;;;;16.83;100.00;96660.16;5034642;27;105380;-64
2022/05/13 04:53:45;;;;;;;6.87;6.23;;;;;;;16.88;100.00;96657.44;5053738;27;101734;-66
2022/05/13 04:56:12;;;;;;;7.20;6.60;;;;;;;16.96;100.00;96657.59;5056345;27;102281;-66
2022/05/13 04:58:41;;;;;;;7.60;6.80;;;;;;;17.03;100.00;96659.97;5076466;27;101928;-66
2022/05/13 05:01:17;;;;;;;7.37;6.67;;;;;;;17.10;100.00;96645.13;5055232;27;105064;-66
2022/05/13 05:03:46;;;;;;;8.90;8.00;;;;;;;17.19;100.00;96650.66;5054598;27;105069;-66
2022/05/13 05:06:15;;;;;;;9.33;7.97;;;;;;;17.21;100.00;96648.50;5054802;27;101933;-66
2022/05/13 05:08:42;;;;;;;7.53;6.93;;;;;;;17.27;100.00;96650.84;5053732;27;104776;-66
2022/05/13 05:11:35;;;;;;;8.20;6.83;;;;;;;17.29;100.00;96642.50;5034247;27;105355;-66
2022/05/13 05:14:02;;;;;;;8.37;7.57;;;;;;;17.34;100.00;96648.59;5051814;27;101835;-66
2022/05/13 05:16:43;;;;;;;7.23;6.63;;;;;;;17.38;100.00;96646.97;5034658;27;103594;-66
2022/05/13 05:19:12;;;;;;;8.53;7.73;;;;;;;17.27;100.00;96655.44;5037587;27;105598;-66
2022/05/13 05:21:39;;;;;;;8.83;7.73;;;;;;;17.30;100.00;96660.22;5034661;27;105580;-66
2022/05/13 05:24:06;;;;;;;8.23;7.20;;;;;;;17.37;100.00;96655.28;5033657;27;106431;-66
2022/05/13 05:26:33;;;;;;;8.20;7.60;;;;;;;17.41;100.00;96654.50;5034408;27;101944;-66
2022/05/13 05:29:00;;;;;;;8.17;7.47;;;;;;;17.45;100.00;96657.41;5034463;27;105254;-66
2022/05/13 05:32:04;;;;;;;8.27;7.57;;;;;;;17.51;100.00;96659.75;5033829;27;105654;-66
2022/05/13 05:34:34;;;;;;;7.47;6.87;;;;;;;17.51;100.00;96648.19;5053148;27;101719;-66
2022/05/13 05:37:01;;;;;;;7.90;7.27;;;;;;;17.58;100.00;96652.13;5052746;27;102592;-66
2022/05/13 05:39:27;;;;;;;7.70;7.00;;;;;;;17.62;100.00;96663.09;5033829;27;105639;-66
2022/05/13 05:41:55;;;;;;;7.40;6.70;;;;;;;17.65;100.00;96654.47;5037794;27;101936;-66
2022/05/13 05:44:21;;;;;;;7.07;6.47;;;;;;;17.74;100.00;96650.84;5050480;27;104982;-66
2022/05/13 05:47:05;;;;;;;8.17;7.37;;;;;;;17.75;100.00;96657.00;5034254;27;101904;-66
2022/05/13 05:49:34;;;;;;;7.90;7.10;;;;;;;17.81;100.00;96653.97;5034144;27;105279;-66
2022/05/13 05:52:07;;;;;;;7.77;7.07;;;;;;;17.85;100.00;96664.97;5032308;27;104263;-66
2022/05/13 05:57:18;;;;;;;8.17;7.47;;;;;;;17.93;100.00;96675.88;5044609;27;105204;-66
2022/05/13 05:59:46;;;;;;;8.33;7.53;;;;;;;17.94;100.00;96668.63;5053555;27;105711;-66
2022/05/13 06:02:47;;;;;;;7.47;6.77;;;;;;;18.11;100.00;96675.09;5054059;27;101929;-66
2022/05/13 06:05:15;;;;;;;9.50;7.10;;;;;;;18.26;100.00;96671.41;5075732;27;102514;-66
2022/05/13 06:07:42;;;;;;;7.97;7.23;;;;;;;18.18;100.00;96677.41;5054008;27;101952;-67
2022/05/13 06:10:51;;;;;;;8.10;7.40;;;;;;;18.05;100.00;96667.38;5053693;27;104733;-66
2022/05/13 06:13:18;;;;;;;8.23;7.47;;;;;;;18.07;100.00;96668.69;5072062;27;102607;-66
2022/05/13 06:15:54;;;;;;;8.57;7.83;;;;;;;18.29;100.00;96674.28;5054089;27;102256;-67
2022/05/13 06:18:22;;;;;;;10.97;8.90;;;;;;;18.29;100.00;96673.50;5053989;27;103999;-67
2022/05/13 06:20:58;;;;;;;9.00;8.17;;;;;;;18.20;100.00;96675.25;5053282;27;105396;-66
2022/05/13 06:23:25;;;;;;;7.43;6.83;;;;;;;18.37;100.00;96673.66;5059194;27;102006;-67
2022/05/13 06:25:52;;;;;;;7.87;7.07;;;;;;;18.62;100.00;96664.38;5051730;27;102428;-66
2022/05/13 06:28:20;;;;;;;7.10;6.50;;;;;;;18.74;100.00;96670.13;5049962;27;105490;-64
2022/05/13 06:31:16;;;;;;;8.07;7.20;;;;;;;18.73;100.00;96672.00;5047351;27;105778;-65
2022/05/13 06:33:43;;;;;;;7.20;6.50;;;;;;;18.47;100.00;96662.72;5029747;28;105298;-64
2022/05/13 06:36:12;;;;;;;8.23;7.03;;;;;;;18.39;100.00;96673.38;5046942;27;102060;-68
2022/05/13 06:38:39;;;;;;;7.40;6.40;;;;;;;18.27;100.00;96673.81;5030232;28;105080;-65
2022/05/13 06:41:37;;;;;;;6.27;5.33;;;;;;;18.23;100.00;96688.13;5029328;28;103906;-63
2022/05/13 06:44:05;;;;;;;5.73;5.07;;;;;;;18.37;100.00;96689.03;5040836;27;103462;-64
2022/05/13 06:47:25;;;;;;;6.13;4.93;;;;;;;18.43;100.00;96685.94;5050080;27;105068;-64
2022/05/13 06:49:52;;;;;;;6.53;5.23;;;;;;;18.23;100.00;96690.81;5049664;27;105669;-64
2022/05/13 06:52:34;;;;;;;5.63;5.20;;;;;;;18.38;100.00;96687.94;5053633;27;101977;-64
2022/05/13 06:55:01;;;;;;;5.30;4.90;;;;;;;18.54;100.00;96697.38;5049504;27;103846;-64
2022/05/13 06:57:28;;;;;;;6.07;5.47;;;;;;;18.41;100.00;96703.50;5050205;27;101997;-64
2022/05/13 06:59:55;;;;;;;7.57;5.00;;;;;;;18.25;100.00;96715.56;5051124;27;104411;-63
2022/05/13 07:02:35;;;;;;;5.90;5.33;;;;;;;17.95;100.00;96721.34;5048835;27;104985;-63
2022/05/13 07:05:01;;;;;;;7.57;5.33;;;;;;;18.00;100.00;96719.41;5050037;27;101974;-62
2022/05/13 07:07:30;;;;;;;6.17;5.57;;;;;;;18.11;100.00;96720.06;5049752;27;105302;-64
2022/05/13 07:09:58;;;;;;;6.80;5.80;;;;;;;18.13;100.00;96720.56;5049284;27;105053;-64
2022/05/13 07:13:09;;;;;;;5.83;5.33;;;;;;;18.11;100.00;96720.06;5053264;27;102196;-64
2022/05/13 07:15:53;;;;;;;6.70;6.00;;;;;;;18.14;100.00;96724.88;5049153;27;105069;-64
2022/05/13 07:18:46;;;;;;;6.57;5.90;;;;;;;18.24;100.00;96720.13;5051640;27;101995;-64
2022/05/13 07:21:25;;;;;;;7.17;5.83;;;;;;;18.12;100.00;96721.66;5049891;27;104260;-65
2022/05/13 07:24:06;;;;;;;6.10;5.60;;;;;;;18.11;100.00;96718.16;5039599;27;104641;-65
2022/05/13 07:26:46;;;;;;;7.30;5.37;;;;;;;18.12;100.00;96722.47;5031090;27;101930;-65
2022/05/13 07:29:15;;;;;;;8.07;5.93;;;;;;;18.13;100.00;96720.56;5031042;27;102262;-65
2022/05/13 07:31:58;;;;;;;7.13;6.37;;;;;;;18.31;100.00;96717.09;5030005;28;102695;-65
2022/05/13 07:34:27;;;;;;;6.70;6.10;;;;;;;18.23;100.00;96706.97;5030458;27;102096;-63
2022/05/13 07:36:59;;;;;;;6.93;5.33;;;;;;;18.23;100.00;96717.72;5032741;27;102524;-64
2022/05/13 07:42:29;;;;;;;7.20;6.33;;;;;;;18.26;100.00;96717.94;5030888;27;102351;-64
2022/05/13 07:45:42;;;;;;;6.00;5.50;;;;;;;18.13;100.00;96715.16;5030051;27;102563;-64
2022/05/13 07:48:14;;;;;;;6.70;6.10;;;;;;;18.03;100.00;96720.72;5045500;27;101972;-64
2022/05/13 07:51:04;;;;;;;6.00;5.40;;;;;;;17.98;100.00;96716.16;5028990;28;104622;-65
2022/05/13 07:53:31;;;;;;;6.30;5.57;;;;;;;17.89;100.00;96722.50;5028414;28;105850;-65
2022/05/13 07:55:59;;;;;;;5.70;5.20;;;;;;;17.93;100.00;96720.84;5030248;28;101912;-62
2022/05/13 07:58:28;;;;;;;5.80;5.30;;;;;;;17.97;100.00;96721.84;5028811;28;105201;-62
2022/05/13 08:01:16;;;;;;;5.40;4.90;;;;;;;18.01;100.00;96722.88;5033152;28;103059;-61
2022/05/13 08:03:44;;;;;;;5.60;5.10;;;;;;;17.94;100.00;96719.75;5030696;28;102290;-62
2022/05/13 08:06:13;;;;;;;5.60;5.10;;;;;;;17.94;100.00;96725.13;5028016;28;104520;-61
2022/05/13 08:08:45;;;;;;;5.17;4.50;;;;;;;18.00;100.00;96715.91;5029964;28;101896;-62
2022/05/13 08:11:14;;;;;;;5.07;4.67;;;;;;;18.16;100.00;96706.53;5028766;28;105133;-62
2022/05/13 08:13:44;;;;;;;5.70;4.97;;;;;;;18.23;100.00;96705.09;5028378;27;105762;-62
2022/05/13 08:16:15;;;;;;;5.90;5.27;;;;;;;18.47;100.00;96703.13;5032180;28;103345;-61
2022/05/13 08:18:44;;;;;;;5.30;4.83;;;;;;;18.72;100.00;96700.06;5032440;28;105398;-62
2022/05/13 08:21:24;;;;;;;5.60;5.17;;;;;;;19.10;100.00;96698.88;5011528;28;106838;-62
2022/05/13 08:23:52;;;;;;;5.33;4.87;;;;;;;19.26;100.00;96696.72;5036592;27;101984;-62
2022/05/13 08:26:19;;;;;;;4.93;4.40;;;;;;;19.07;100.00;96701.38;5073833;27;103155;-62
2022/05/13 08:28:48;;;;;;;4.77;4.37;;;;;;;19.27;100.00;96688.34;5074310;27;101873;-61
2022/05/13 08:31:53;;;;;;;4.67;4.27;;;;;;;19.50;100.00;96689.28;5074058;27;102574;-62
2022/05/13 08:34:20;;;;;;;4.50;4.00;;;;;;;19.99;100.00;96686.66;5073455;27;103219;-62
2022/05/13 08:36:48;;;;;;;4.17;3.60;;;;;;;20.07;100.00;96678.69;5055519;27;102060;-61
2022/05/13 08:39:15;;;;;;;4.07;3.77;;;;;;;20.27;100.00;96680.91;5074203;27;102469;-60
2022/05/13 08:42:14;;;;;;;4.63;3.70;;;;;;;20.21;100.00;96673.25;5054907;27;105333;-61
2022/05/13 08:45:08;;;;;;;3.40;3.10;;;;;;;20.47;100.00;96676.94;5055663;27;101761;-61
2022/05/13 08:47:46;;;;;;;4.50;3.23;;;;;;;20.66;100.00;96670.25;5076778;27;102380;-61
2022/05/13 08:50:21;;;;;;;4.60;3.33;;;;;;;20.89;100.00;96662.97;5071973;27;101742;-61
2022/05/13 08:53:08;;;;;;;3.40;3.20;;;;;;;20.98;100.00;96666.53;5073655;27;102399;-61
2022/05/13 08:55:39;;;;;;;3.33;2.90;;;;;;;21.09;100.00;96657.84;5073182;27;102775;-62
2022/05/13 08:58:09;;;;;;;3.47;3.17;;;;;;;21.27;100.00;96647.91;5055118;27;102151;-63
2022/05/13 09:00:42;;;;;;;3.40;2.90;;;;;;;21.17;100.00;96650.88;5073317;27;102365;-62
2022/05/13 09:03:19;;;;;;;2.93;2.67;;;;;;;21.13;100.00;96658.84;5073176;27;102882;-61
2022/05/13 09:05:49;;;;;;;2.53;2.43;;;;;;;21.24;100.00;96664.75;5054683;27;101771;-62
2022/05/13 09:08:16;;;;;;;3.50;3.10;;;;;;;21.26;100.00;96657.16;5073365;27;102612;-63
2022/05/13 09:11:16;;;;;;;2.97;2.77;;;;;;;21.68;100.00;96649.22;5076288;27;101846;-62
2022/05/13 09:13:51;;;;;;;3.50;2.67;;;;;;;21.50;100.00;96641.31;5059332;27;102574;-63
2022/05/13 09:16:46;;;;;;;2.50;2.30;;;;;;;21.80;100.00;96640.50;5072839;27;103237;-61
2022/05/13 09:19:17;;;;;;;3.20;2.90;;;;;;;21.56;100.00;96640.06;5073516;27;101760;-62
2022/05/13 09:22:24;;;;;;;3.43;3.13;;;;;;;21.55;100.00;96620.34;5073214;27;104350;-62
2022/05/13 09:24:51;;;;;;;3.60;2.77;;;;;;;21.58;100.00;96619.69;5053495;27;105530;-62
2022/05/13 09:27:18;;;;;;;3.90;3.60;;;;;;;21.66;100.00;96616.22;5054429;27;103148;-62
2022/05/13 09:29:47;;;;;;;3.87;3.30;;;;;;;21.70;100.00;96616.44;5054494;27;105251;-61
2022/05/13 09:32:28;;;;;;;2.93;2.70;;;;;;;21.34;100.00;96618.50;5057359;27;105928;-61
2022/05/13 09:35:05;;;;;;;2.90;2.70;;;;;;;21.58;100.00;96616.22;5072918;27;102937;-61
2022/05/13 09:37:38;;;;;;;2.93;2.60;;;;;;;21.60;100.00;96608.56;5053788;27;105637;-61
2022/05/13 09:40:11;;;;;;;3.13;2.73;;;;;;;21.94;100.00;96601.34;5054416;27;101874;-62
2022/05/13 09:42:41;;;;;;;2.60;2.40;;;;;;;22.45;100.00;96598.66;5054339;27;103603;-62
2022/05/13 09:45:26;;;;;;;2.77;2.57;;;;;;;22.82;100.00;96597.16;5053385;27;104727;-62
2022/05/13 09:48:10;;;;;;;2.70;2.50;;;;;;;22.60;100.00;96590.03;5072936;27;101794;-61
2022/05/13 09:50:43;;;;;;;2.63;2.43;;;;;;;22.34;100.00;96580.31;5072920;27;102368;-61
2022/05/13 09:53:29;;;;;;;2.67;2.47;;;;;;;22.52;100.00;96581.91;5072165;27;102647;-62
2022/05/13 09:55:58;;;;;;;2.30;2.17;;;;;;;22.67;100.00;96578.72;5057800;27;101940;-62
2022/05/13 09:58:28;;;;;;;2.70;2.40;;;;;;;22.42;100.00;96582.22;5072132;27;102889;-62
2022/05/13 10:01:24;;;;;;;2.70;2.50;;;;;;;23.15;100.00;96585.41;5072574;27;101853;-62
2022/05/13 10:04:08;;;;;;;2.57;2.37;;;;;;;23.53;100.00;96577.28;5072693;27;102568;-61
2022/05/13 10:06:36;;;;;;;2.33;2.23;;;;;;;23.36;100.00;96574.66;5070445;27;107338;-61
2022/05/13 10:14:45;;;;;;;2.37;2.20;;;;;;;22.95;100.00;96577.97;5005278;27;103035;-62
2022/05/13 10:17:17;;;;;;;2.90;2.33;;;;;;;23.28;100.00;96572.78;5065509;27;101782;-62
2022/05/13 10:19:51;;;;;;;3.10;2.60;;;;;;;23.40;100.00;96576.41;5073811;27;105626;-61
2022/05/13 10:22:28;;;;;;;2.50;2.30;;;;;;;22.92;100.00;96575.13;5070986;27;102104;-62
2022/05/13 10:24:59;;;;;;;4.30;2.60;;;;;;;22.71;100.00;96572.31;5071685;27;104017;-62
2022/05/13 10:27:32;;;;;;;2.87;2.53;;;;;;;22.36;100.00;96573.47;5053157;27;104915;-61
2022/05/13 10:30:05;;;;;;;3.83;3.23;;;;;;;22.56;100.00;96577.47;5072572;27;101745;-61
2022/05/13 10:32:46;;;;;;;2.80;2.57;;;;;;;22.14;100.00;96580.97;5053687;27;105145;-61
2022/05/13 10:35:20;;;;;;;2.60;2.40;;;;;;;22.10;100.00;96577.28;5053188;27;104322;-61
2022/05/13 10:38:01;;;;;;;3.23;2.50;;;;;;;21.67;100.00;96574.50;5069910;27;101843;-61
2022/05/13 10:40:48;;;;;;;3.57;2.60;;;;;;;21.71;100.00;96578.22;5072111;27;102271;-61
2022/05/13 10:43:20;;;;;;;5.03;2.73;;;;;;;21.89;100.00;96577.13;5075101;27;102954;-62
2022/05/13 10:49:10;;;;;;;2.30;2.20;;;;;;;22.20;100.00;96585.91;5071142;27;102564;-63
2022/05/13 10:52:06;;;;;;;3.80;2.70;;;;;;;22.15;100.00;96574.41;5072085;27;102038;-62
2022/05/13 10:54:43;;;;;;;2.83;2.63;;;;;;;21.86;100.00;96585.09;5070564;27;104918;-62
2022/05/13 10:57:29;;;;;;;2.43;2.30;;;;;;;21.86;100.00;96580.44;5069941;27;105787;-62
2022/05/13 11:00:12;;;;;;;3.40;2.60;;;;;;;21.83;100.00;96585.69;5072053;27;103061;-62
2022/05/13 11:03:14;;;;;;;2.80;2.60;;;;;;;21.69;100.00;96585.84;5071996;27;102938;-62
2022/05/13 11:05:52;;;;;;;3.27;2.93;;;;;;;21.65;100.00;96587.56;5071026;27;102717;-62
2022/05/13 11:08:26;;;;;;;3.07;2.77;;;;;;;21.46;100.00;96589.75;5075423;27;101709;-62
2022/05/13 11:11:03;;;;;;;4.00;2.77;;;;;;;21.21;100.00;96584.25;5071153;27;103042;-62
2022/05/13 11:13:47;;;;;;;7.13;3.20;;;;;;;21.15;100.00;96593.63;5071333;27;102002;-62
2022/05/13 11:16:36;;;;;;;4.40;3.67;;;;;;;20.87;100.00;96594.88;5071723;27;102404;-62
2022/05/13 11:19:10;;;;;;;3.87;3.30;;;;;;;20.09;100.00;96603.56;5071206;27;102561;-62
2022/05/13 11:22:18;;;;;;;3.30;2.60;;;;;;;19.07;100.00;96601.63;5071888;27;101795;-62
2022/05/13 11:27:53;;;;;;;6.60;3.83;;;;;;;17.11;100.00;96705.06;5071011;27;102554;-62
2022/05/13 11:30:36;;;;;;;4.03;3.53;;;;;;;16.70;100.00;96709.97;5071648;27;101775;-62
2022/05/13 11:33:18;;;;;;;9.63;4.23;;;;;;;16.50;100.00;96726.22;5074453;27;102361;-62
2022/05/13 11:35:57;;;;;;;7.97;5.00;;;;;;;15.85;100.00;96728.44;5071263;27;102214;-62
2022/05/13 11:38:36;;;;;;;5.20;4.57;;;;;;;15.76;100.00;96722.06;5071388;27;102372;-62
2022/05/13 11:41:36;;;;;;;5.37;3.90;;;;;;;16.00;100.00;96747.97;5053675;27;102582;-62
2022/05/13 11:44:06;;;;;;;7.57;3.60;;;;;;;16.17;100.00;96751.09;5052551;27;102018;-62
2022/05/13 11:46:49;;;;;;;4.10;3.70;;;;;;;16.21;100.00;96744.09;5071008;27;102403;-62
2022/05/13 11:49:23;;;;;;;3.53;3.23;;;;;;;16.24;100.00;96742.75;5070917;27;102860;-62
2022/05/13 11:51:50;;;;;;;4.53;3.20;;;;;;;16.34;100.00;96734.63;5071371;27;101958;-62
2022/05/13 11:54:22;;;;;;;4.57;3.10;;;;;;;16.41;100.00;96738.63;5055571;27;105247;-62
2022/05/13 11:57:24;;;;;;;5.20;4.20;;;;;;;16.68;100.00;96727.44;5052590;27;101943;-62
2022/05/13 11:59:54;;;;;;;5.50;3.90;;;;;;;16.74;100.00;96731.69;5070913;27;102423;-62
2022/05/13 12:02:34;;;;;;;4.10;3.33;;;;;;;16.76;100.00;96751.81;5051696;27;106201;-62
2022/05/13 12:05:27;;;;;;;4.43;3.33;;;;;;;16.94;100.00;96750.34;5070828;27;102130;-62
2022/05/13 12:08:02;;;;;;;4.23;3.33;;;;;;;16.88;100.00;96748.75;5061375;27;102312;-62
2022/05/13 12:10:51;;;;;;;2.90;2.60;;;;;;;16.80;100.00;96765.50;5070175;27;103155;-62
2022/05/13 12:13:32;;;;;;;3.47;3.13;;;;;;;16.80;100.00;96760.94;5070698;27;101724;-62
2022/05/13 12:16:32;;;;;;;4.33;3.33;;;;;;;17.03;100.00;96760.22;5052244;27;105209;-62
2022/05/13 12:19:15;;;;;;;3.20;2.87;;;;;;;17.16;100.00;96761.44;5055227;27;105870;-62
2022/05/13 12:22:24;;;;;;;3.10;2.60;;;;;;;16.94;100.00;96748.44;5051778;27;105605;-62
2022/05/13 12:24:57;;;;;;;3.00;2.80;;;;;;;16.82;100.00;96749.88;5070093;27;103070;-62
2022/05/13 12:27:37;;;;;;;2.80;2.60;;;;;;;17.00;100.00;96763.44;5070472;27;101846;-62
2022/05/13 12:30:29;;;;;;;4.23;2.77;;;;;;;16.85;100.00;96762.78;5052059;27;103786;-62
2022/05/13 12:32:58;;;;;;;2.90;2.67;;;;;;;16.99;100.00;96761.84;5049447;27;102631;-62
2022/05/13 12:38:22;;;;;;;3.20;2.90;;;;;;;17.03;100.00;96756.69;5071031;27;102509;-62